Time;durP1;ratioP1;P1;durP2;ratioP2;P2;SDS_P1;SDS_P2;PMS_P1;PMS_P2;Temp;Humidity;BMP_temperature;BMP_pressure;BME280_temperature;BME280_humidity;BME280_pressure;Samples;Min_cycle;Max_cycle;Signal;HPM_P1;HPM_P2
2024/04/02 00:00:35;;;;;;;10.93;2.78;;;13.80;1.00;;;;;;4843001;29;20042;-81
2024/04/02 00:03:05;;;;;;;6.65;2.15;;;13.90;1.00;;;;;;4877449;29;20040;-81
2024/04/02 00:05:30;;;;;;;6.40;2.20;;;13.80;1.00;;;;;;4880298;29;20041;-82
2024/04/02 00:07:56;;;;;;;7.93;2.40;;;13.70;99.90;;;;;;4861724;29;20038;-83
2024/04/02 00:10:21;;;;;;;7.10;2.50;;;13.70;99.90;;;;;;4879858;29;20037;-82
2024/04/02 00:12:47;;;;;;;6.63;2.08;;;13.70;99.90;;;;;;4879748;29;20041;-82
2024/04/02 00:15:13;;;;;;;6.45;1.55;;;13.70;99.90;;;;;;4896285;29;20040;-82
2024/04/02 00:17:39;;;;;;;7.03;2.40;;;13.60;99.90;;;;;;4879895;29;20033;-81
2024/04/02 00:20:05;;;;;;;8.13;2.08;;;13.60;99.90;;;;;;4879506;29;20250;-79
2024/04/02 00:22:30;;;;;;;5.80;1.83;;;13.60;99.90;;;;;;4898175;29;20040;-79
2024/04/02 00:24:56;;;;;;;6.38;2.10;;;13.60;99.90;;;;;;4898321;29;20157;-80
2024/04/02 00:27:21;;;;;;;7.90;2.40;;;13.50;99.90;;;;;;4916941;29;20032;-81
2024/04/02 00:29:47;;;;;;;6.15;2.08;;;13.50;99.90;;;;;;4900038;29;20480;-79
2024/04/02 00:32:12;;;;;;;5.70;1.90;;;13.50;99.90;;;;;;4917113;29;20524;-78
2024/04/02 00:34:43;;;;;;;4.13;1.90;;;13.50;99.90;;;;;;4902925;29;20049;-80
2024/04/02 00:37:09;;;;;;;5.45;2.00;;;13.30;99.90;;;;;;4898172;29;20532;-80
2024/04/02 00:39:36;;;;;;;5.72;2.10;;;13.30;99.90;;;;;;4898139;29;20049;-82
2024/04/02 00:42:03;;;;;;;6.25;2.25;;;13.20;99.90;;;;;;4869198;29;20064;-78
2024/04/02 00:44:29;;;;;;;7.00;2.42;;;13.20;99.90;;;;;;4860572;29;20051;-81
2024/04/02 00:46:54;;;;;;;6.50;2.15;;;13.10;1.00;;;;;;4860527;29;20038;-78
2024/04/02 00:49:21;;;;;;;6.45;2.45;;;13.10;1.00;;;;;;4879058;29;20159;-77
2024/04/02 00:51:46;;;;;;;6.47;2.05;;;13.20;1.00;;;;;;4893884;29;20040;-80
2024/04/02 00:54:12;;;;;;;6.22;2.05;;;13.10;1.00;;;;;;4908627;29;20474;-79
2024/04/02 00:56:39;;;;;;;4.85;2.03;;;13.10;1.00;;;;;;4935563;29;20490;-80
2024/04/02 00:59:04;;;;;;;4.55;1.70;;;13.10;1.00;;;;;;4868259;29;20139;-80
2024/04/02 01:01:30;;;;;;;6.65;1.90;;;13.10;1.00;;;;;;4878756;29;20034;-79
2024/04/02 01:03:55;;;;;;;4.10;1.90;;;13.10;1.00;;;;;;4878862;29;20462;-79
2024/04/02 01:06:21;;;;;;;5.32;1.98;;;13.10;1.00;;;;;;4876604;29;20151;-81
2024/04/02 01:08:47;;;;;;;4.57;2.17;;;13.00;1.00;;;;;;4878918;29;20080;-80
2024/04/02 01:11:12;;;;;;;8.82;2.28;;;13.00;1.00;;;;;;4878609;29;20405;-80
2024/04/02 01:13:38;;;;;;;5.65;2.35;;;13.00;1.00;;;;;;4878757;29;20067;-79
2024/04/02 01:16:04;;;;;;;5.05;1.90;;;13.00;1.00;;;;;;4878741;29;20375;-81
2024/04/02 01:18:30;;;;;;;7.70;2.53;;;12.90;1.00;;;;;;4878560;29;20104;-79
2024/04/02 01:20:56;;;;;;;7.00;2.22;;;13.00;1.00;;;;;;4832764;29;20534;-80
2024/04/02 01:23:22;;;;;;;6.63;2.35;;;12.90;1.00;;;;;;4841449;29;20098;-80
2024/04/02 01:25:48;;;;;;;5.90;2.50;;;13.00;1.00;;;;;;4859826;29;20045;-80
2024/04/02 01:28:13;;;;;;;6.88;2.55;;;13.00;1.00;;;;;;4846134;29;20114;-80
2024/04/02 01:30:39;;;;;;;7.72;2.55;;;12.90;1.00;;;;;;4867333;29;20069;-80
2024/04/02 01:33:04;;;;;;;7.63;3.00;;;12.80;1.90;;;;;;4878247;29;20041;-80
2024/04/02 01:35:30;;;;;;;5.65;2.35;;;12.80;23.90;;;;;;4878063;29;20131;-79
2024/04/02 01:37:55;;;;;;;5.90;2.50;;;12.70;99.90;;;;;;4859581;29;20034;-79
2024/04/02 01:40:21;;;;;;;5.53;2.55;;;12.60;99.90;;;;;;4825917;29;20038;-78
2024/04/02 01:42:47;;;;;;;5.05;2.63;;;12.60;99.90;;;;;;4849576;29;20094;-79
2024/04/02 01:45:12;;;;;;;7.65;2.80;;;12.60;99.90;;;;;;4859353;29;20052;-78
2024/04/02 01:47:38;;;;;;;7.65;3.15;;;12.50;99.90;;;;;;4840871;29;20142;-80
2024/04/02 01:50:03;;;;;;;6.47;2.92;;;12.40;99.90;;;;;;4854512;29;20045;-80
2024/04/02 01:52:29;;;;;;;7.68;2.63;;;12.30;99.90;;;;;;4891108;29;20082;-80
2024/04/02 01:54:55;;;;;;;7.05;3.08;;;12.20;99.90;;;;;;4896756;29;20043;-80
2024/04/02 01:57:20;;;;;;;6.80;3.00;;;12.10;99.90;;;;;;4877839;29;20129;-80
2024/04/02 01:59:46;;;;;;;6.22;2.88;;;12.00;99.90;;;;;;4877821;29;20045;-80
2024/04/02 02:02:11;;;;;;;5.18;2.75;;;12.00;99.90;;;;;;4859135;29;20085;-78
2024/04/02 02:04:37;;;;;;;5.03;2.50;;;11.90;99.90;;;;;;4822521;29;20035;-78
2024/04/02 02:07:03;;;;;;;4.13;2.58;;;11.90;99.90;;;;;;4815044;29;20035;-78
2024/04/02 02:09:28;;;;;;;5.05;2.55;;;11.90;1.00;;;;;;4817547;29;20054;-78
2024/04/02 02:11:54;;;;;;;4.93;2.95;;;11.70;1.00;;;;;;4822687;29;20061;-78
2024/04/02 02:14:19;;;;;;;4.72;2.80;;;11.70;1.00;;;;;;4778591;29;20126;-78
2024/04/02 02:16:45;;;;;;;6.85;2.78;;;11.70;28.50;;;;;;4828495;29;20038;-78
2024/04/02 02:19:10;;;;;;;5.00;2.55;;;11.80;6.20;;;;;;4809514;29;20050;-78
2024/04/02 02:21:36;;;;;;;4.20;3.00;;;11.90;1.00;;;;;;4804587;29;20039;-79
2024/04/02 02:24:02;;;;;;;3.65;2.63;;;11.80;1.00;;;;;;4822440;29;20045;-79
2024/04/02 02:26:28;;;;;;;3.50;2.90;;;11.70;1.00;;;;;;4822818;29;20062;-79
2024/04/02 02:28:54;;;;;;;4.15;2.80;;;11.80;1.00;;;;;;4823765;29;20062;-79
2024/04/02 02:31:19;;;;;;;5.45;2.85;;;11.70;1.00;;;;;;4845361;29;20057;-79
2024/04/02 02:33:48;;;;;;;6.03;2.67;;;11.70;1.00;;;;;;4854445;29;20040;-79
2024/04/02 02:36:14;;;;;;;3.67;2.63;;;11.60;1.00;;;;;;4849706;29;20037;-78
2024/04/02 02:38:39;;;;;;;4.50;2.65;;;11.50;1.00;;;;;;4877258;29;20041;-79
2024/04/02 02:41:05;;;;;;;4.93;2.40;;;11.50;1.00;;;;;;4905832;29;20492;-81
2024/04/02 02:43:31;;;;;;;4.15;2.92;;;11.30;25.10;;;;;;4915081;29;20039;-80
2024/04/02 02:45:56;;;;;;;3.33;2.63;;;11.30;90.40;;;;;;4896089;29;20409;-80
2024/04/02 02:48:22;;;;;;;3.88;2.60;;;11.20;81.80;;;;;;4867905;29;20048;-80
2024/04/02 02:50:48;;;;;;;5.03;2.40;;;11.10;99.90;;;;;;4877350;29;20061;-80
2024/04/02 02:53:14;;;;;;;3.45;2.53;;;11.20;99.90;;;;;;4899334;29;20445;-80
2024/04/02 02:55:39;;;;;;;3.35;2.50;;;11.20;99.90;;;;;;4880949;29;20033;-82
2024/04/02 02:58:05;;;;;;;3.20;2.50;;;11.20;99.90;;;;;;4917817;29;20395;-82
2024/04/02 03:00:31;;;;;;;3.60;2.50;;;11.10;99.90;;;;;;4897969;29;20036;-83
2024/04/02 03:02:56;;;;;;;3.45;2.45;;;11.10;99.90;;;;;;4899511;29;20043;-83
2024/04/02 03:05:22;;;;;;;4.10;2.90;;;11.00;99.90;;;;;;4918790;29;20036;-82
2024/04/02 03:07:47;;;;;;;4.70;2.70;;;11.00;99.90;;;;;;4891498;29;20113;-83
2024/04/02 03:10:13;;;;;;;3.75;2.70;;;11.00;99.90;;;;;;4918359;29;20048;-83
2024/04/02 03:12:39;;;;;;;3.75;3.10;;;11.00;99.90;;;;;;4917892;29;20127;-82
2024/04/02 03:15:05;;;;;;;4.25;2.90;;;10.90;1.00;;;;;;4896582;29;20032;-83
2024/04/02 03:17:31;;;;;;;3.95;3.00;;;10.90;1.00;;;;;;4903714;29;20037;-83
2024/04/02 03:19:56;;;;;;;4.82;3.10;;;10.90;1.00;;;;;;4872250;29;20049;-83
2024/04/02 03:22:22;;;;;;;3.55;3.17;;;10.80;20.80;;;;;;4880641;29;20123;-83
2024/04/02 03:24:51;;;;;;;3.88;2.97;;;10.90;99.90;;;;;;4848647;29;20524;-83
2024/04/02 03:27:16;;;;;;;5.03;3.47;;;10.90;99.90;;;;;;4830087;29;20085;-82
2024/04/02 03:29:42;;;;;;;4.47;3.30;;;10.80;99.90;;;;;;4798608;29;20079;-82
2024/04/02 03:32:07;;;;;;;4.07;3.17;;;10.80;99.90;;;;;;4794099;29;20039;-82
2024/04/02 03:34:33;;;;;;;4.28;3.33;;;10.80;99.90;;;;;;4794058;29;20081;-83
2024/04/02 03:36:59;;;;;;;4.70;3.78;;;10.70;99.90;;;;;;4833961;29;20038;-82
2024/04/02 03:39:24;;;;;;;5.53;3.53;;;10.60;99.90;;;;;;4843420;29;20502;-82
2024/04/02 03:41:50;;;;;;;3.97;3.15;;;10.60;1.00;;;;;;4834515;29;20483;-83
2024/04/02 03:44:16;;;;;;;5.63;3.60;;;10.60;99.90;;;;;;4838417;29;20427;-83
2024/04/02 03:46:42;;;;;;;4.60;3.30;;;10.60;99.90;;;;;;4843497;29;20101;-83
2024/04/02 03:49:07;;;;;;;5.72;3.30;;;10.70;1.00;;;;;;4908181;29;20068;-83
2024/04/02 03:51:33;;;;;;;4.88;3.80;;;10.70;1.00;;;;;;4922669;29;20079;-83
2024/04/02 03:53:58;;;;;;;4.82;3.47;;;10.70;99.90;;;;;;4917997;29;20386;-83
2024/04/02 03:56:25;;;;;;;5.28;3.90;;;10.60;99.90;;;;;;4889727;29;20053;-82
2024/04/02 03:58:51;;;;;;;5.80;4.03;;;10.70;99.90;;;;;;4918027;29;20100;-82
2024/04/02 04:01:17;;;;;;;6.95;4.00;;;10.70;99.90;;;;;;4917884;29;20032;-83
2024/04/02 04:03:43;;;;;;;4.65;3.90;;;10.70;99.90;;;;;;4902866;29;20064;-83
2024/04/02 04:06:08;;;;;;;4.47;3.78;;;10.70;99.90;;;;;;4903635;29;20040;-82
2024/04/02 04:08:34;;;;;;;5.32;4.30;;;10.60;99.90;;;;;;4912326;29;20068;-83
2024/04/02 04:11:01;;;;;;;4.47;3.90;;;10.50;99.90;;;;;;4903598;29;20482;-83
2024/04/02 04:13:27;;;;;;;4.80;3.72;;;10.50;99.90;;;;;;4917488;29;20500;-81
2024/04/02 04:15:57;;;;;;;5.30;3.80;;;10.40;99.90;;;;;;4903115;29;20040;-82
2024/04/02 04:18:24;;;;;;;4.32;3.92;;;10.50;99.90;;;;;;4917100;29;20033;-82
2024/04/02 04:21:00;;;;;;;4.28;3.88;;;10.30;97.60;;;;;;4917587;29;20539;-82
2024/04/02 04:23:26;;;;;;;;;;;10.30;99.90;;;;;;4901991;29;20075;-82
2024/04/02 04:25:59;;;;;;;5.47;4.30;;;10.30;99.90;;;;;;4898778;29;20341;-82
2024/04/02 04:28:25;;;;;;;5.97;4.40;;;10.20;99.90;;;;;;4898214;29;20330;-83
2024/04/02 04:30:59;;;;;;;5.07;4.53;;;10.30;99.90;;;;;;4875386;29;20096;-82
2024/04/02 04:33:25;;;;;;;5.45;4.75;;;10.40;99.90;;;;;;4855477;29;20034;-83
2024/04/02 04:35:51;;;;;;;5.47;4.70;;;10.30;99.90;;;;;;4842442;29;20038;-82
2024/04/02 04:38:18;;;;;;;5.68;4.95;;;10.30;99.90;;;;;;4860739;29;20128;-83
2024/04/02 04:40:44;;;;;;;5.93;5.25;;;10.20;92.60;;;;;;4897606;29;20643;-83
2024/04/02 04:43:12;;;;;;;5.45;4.63;;;10.20;99.90;;;;;;4885924;29;20041;-83
2024/04/02 04:45:38;;;;;;;5.72;5.00;;;10.30;99.90;;;;;;4915806;29;20555;-83
2024/04/02 04:48:08;;;;;;;6.65;5.35;;;10.30;99.90;;;;;;4879511;29;20513;-83
2024/04/02 04:50:34;;;;;;;5.72;4.88;;;10.30;99.90;;;;;;4879139;29;20049;-83
2024/04/02 04:53:00;;;;;;;6.10;5.10;;;10.30;99.90;;;;;;4879210;29;20069;-83
2024/04/02 04:55:30;;;;;;;5.85;5.13;;;10.30;99.90;;;;;;4878824;29;20048;-83
2024/04/02 04:57:56;;;;;;;6.70;4.97;;;10.30;99.90;;;;;;4916429;29;20045;-83
2024/04/02 05:00:22;;;;;;;6.68;5.15;;;10.30;99.90;;;;;;4916737;29;20067;-83
2024/04/02 05:02:47;;;;;;;6.07;5.40;;;10.30;99.90;;;;;;4916550;29;20483;-83
2024/04/02 05:05:13;;;;;;;6.65;5.43;;;10.30;99.90;;;;;;4919609;29;20119;-82
2024/04/02 05:07:53;;;;;;;7.50;5.50;;;10.40;99.90;;;;;;4916556;29;20111;-82
2024/04/02 05:10:19;;;;;;;6.05;5.45;;;10.30;99.90;;;;;;4878790;29;20076;-81
2024/04/02 05:12:44;;;;;;;6.03;5.10;;;10.30;99.90;;;;;;4860002;29;20064;-82
2024/04/02 05:15:10;;;;;;;6.85;5.60;;;10.30;99.90;;;;;;4860029;29;20045;-82
2024/04/02 05:17:36;;;;;;;5.72;5.20;;;10.20;99.90;;;;;;4862438;29;20037;-82
2024/04/02 05:20:01;;;;;;;6.40;5.75;;;10.20;99.90;;;;;;4860172;29;20061;-82
2024/04/02 05:22:28;;;;;;;8.68;5.68;;;10.20;85.90;;;;;;4878539;29;20093;-82
2024/04/02 05:24:54;;;;;;;6.45;5.75;;;10.30;47.80;;;;;;4892708;29;20106;-83
2024/04/02 05:27:19;;;;;;;5.85;5.28;;;10.30;1.00;;;;;;4863029;29;20033;-82
2024/04/02 05:29:46;;;;;;;6.20;5.60;;;10.20;1.00;;;;;;4893582;29;20053;-83
2024/04/02 05:32:12;;;;;;;6.10;5.22;;;10.20;1.00;;;;;;4878593;29;20541;-82
2024/04/02 05:34:37;;;;;;;5.78;5.18;;;10.20;1.00;;;;;;4897003;29;20036;-84
2024/04/02 05:37:03;;;;;;;5.93;5.18;;;10.20;1.00;;;;;;4900105;29;20044;-82
2024/04/02 05:39:29;;;;;;;6.97;6.15;;;10.20;1.00;;;;;;4909500;29;20403;-82
2024/04/02 05:41:55;;;;;;;6.15;5.28;;;10.20;99.90;;;;;;4869568;29;20528;-82
2024/04/02 05:44:21;;;;;;;6.70;5.35;;;10.20;1.00;;;;;;4869206;29;20045;-82
2024/04/02 05:46:46;;;;;;;6.10;5.50;;;10.20;1.00;;;;;;4910658;29;20532;-81
2024/04/02 05:49:14;;;;;;;7.65;5.30;;;10.10;99.90;;;;;;4920289;29;20040;-82
2024/04/02 05:51:39;;;;;;;6.03;5.30;;;10.10;99.90;;;;;;4915668;29;20051;-82
2024/04/02 05:54:05;;;;;;;5.80;4.88;;;10.00;99.90;;;;;;4882507;29;20037;-82
2024/04/02 05:56:30;;;;;;;7.65;5.45;;;10.10;99.90;;;;;;4887788;29;20033;-81
2024/04/02 05:58:56;;;;;;;8.02;6.00;;;10.00;1.00;;;;;;4877752;29;20047;-82
2024/04/02 06:01:22;;;;;;;6.18;5.57;;;10.00;1.00;;;;;;4891611;29;20041;-82
2024/04/02 06:03:47;;;;;;;6.15;5.55;;;10.00;1.00;;;;;;4882473;29;20037;-82
2024/04/02 06:06:13;;;;;;;6.75;5.63;;;10.00;1.00;;;;;;4882483;29;20192;-82
2024/04/02 06:08:39;;;;;;;7.18;6.47;;;9.90;1.00;;;;;;4864178;29;20065;-82
2024/04/02 06:11:04;;;;;;;13.20;10.05;;;10.00;1.00;;;;;;4859040;29;20459;-82
2024/04/02 06:13:30;;;;;;;15.73;14.23;;;10.00;99.90;;;;;;4859227;29;20037;-82
2024/04/02 06:15:56;;;;;;;13.50;11.10;;;10.10;99.90;;;;;;4859179;29;20042;-82
2024/04/02 06:18:23;;;;;;;11.13;9.93;;;9.90;99.90;;;;;;4840664;29;20034;-82
2024/04/02 06:20:57;;;;;;;8.95;8.13;;;10.00;99.90;;;;;;4840560;29;20034;-82
2024/04/02 06:23:22;;;;;;;7.38;6.68;;;9.90;1.00;;;;;;4838467;29;20091;-82
2024/04/02 06:25:49;;;;;;;6.45;5.72;;;9.90;99.90;;;;;;4826158;29;20368;-82
2024/04/02 06:28:15;;;;;;;7.00;6.30;;;9.90;1.00;;;;;;4851093;29;20044;-82
2024/04/02 06:30:41;;;;;;;6.47;5.80;;;9.90;1.00;;;;;;4858871;29;20402;-82
2024/04/02 06:33:07;;;;;;;6.63;5.93;;;9.90;99.90;;;;;;4818999;29;20133;-82
2024/04/02 06:35:33;;;;;;;8.13;6.00;;;9.90;99.90;;;;;;4837065;29;20710;-83
2024/04/02 06:37:58;;;;;;;7.53;6.22;;;9.90;99.90;;;;;;4840632;29;20541;-83
2024/04/02 06:40:24;;;;;;;6.07;5.15;;;9.90;99.90;;;;;;4840683;29;20046;-83
2024/04/02 06:42:49;;;;;;;8.40;5.78;;;9.90;99.90;;;;;;4826215;29;20035;-82
2024/04/02 06:45:15;;;;;;;6.00;5.38;;;9.80;99.90;;;;;;4855244;29;20042;-83
2024/04/02 06:47:40;;;;;;;7.97;6.20;;;9.70;99.90;;;;;;4840474;29;20046;-83
2024/04/02 06:50:06;;;;;;;6.90;5.60;;;9.70;99.90;;;;;;4840300;29;20050;-83
2024/04/02 06:52:32;;;;;;;8.07;5.35;;;9.70;99.90;;;;;;4858918;29;20037;-82
2024/04/02 06:54:58;;;;;;;7.25;5.22;;;9.60;99.90;;;;;;4856030;29;20578;-82
2024/04/02 06:57:23;;;;;;;6.15;5.05;;;9.70;99.90;;;;;;4826754;29;20046;-82
2024/04/02 06:59:49;;;;;;;5.65;4.85;;;9.70;34.60;;;;;;4840235;29;20042;-82
2024/04/02 07:02:14;;;;;;;5.60;4.90;;;9.60;1.00;;;;;;4840488;29;20627;-82
2024/04/02 07:04:40;;;;;;;5.82;4.75;;;9.70;1.00;;;;;;4836572;29;20398;-81
2024/04/02 07:07:07;;;;;;;6.60;4.93;;;9.60;1.00;;;;;;4840227;29;20042;-82
2024/04/02 07:09:33;;;;;;;5.35;4.85;;;9.70;1.00;;;;;;4845285;29;20125;-82
2024/04/02 07:11:59;;;;;;;6.10;5.20;;;9.70;1.00;;;;;;4844962;29;20508;-82
2024/04/02 07:14:25;;;;;;;6.65;5.07;;;9.70;1.00;;;;;;4835405;29;20125;-83
2024/04/02 07:16:53;;;;;;;6.55;5.10;;;9.70;1.00;;;;;;4853923;29;20067;-82
2024/04/02 07:19:18;;;;;;;6.10;4.75;;;9.80;1.00;;;;;;4858592;29;20141;-82
2024/04/02 07:21:44;;;;;;;5.38;4.88;;;9.80;1.00;;;;;;4840150;29;20125;-82
2024/04/02 07:24:10;;;;;;;7.05;5.45;;;9.90;1.00;;;;;;4844753;29;20040;-82
2024/04/02 07:26:35;;;;;;;6.40;5.05;;;9.90;1.00;;;;;;4839906;29;20079;-83
2024/04/02 07:29:01;;;;;;;6.80;4.88;;;9.90;99.90;;;;;;4812654;29;20277;-83
2024/04/02 07:31:28;;;;;;;7.28;4.63;;;10.00;1.00;;;;;;4856210;29;20073;-82
2024/04/02 07:33:54;;;;;;;6.75;5.07;;;9.80;1.00;;;;;;4858271;29;20042;-83
2024/04/02 07:36:20;;;;;;;6.13;4.90;;;9.80;1.00;;;;;;4856377;29;20454;-83
2024/04/02 07:38:45;;;;;;;8.68;5.22;;;9.90;1.00;;;;;;4858851;29;20143;-82
2024/04/02 07:41:11;;;;;;;5.97;5.32;;;9.80;1.00;;;;;;4842987;29;20075;-81
2024/04/02 07:43:37;;;;;;;5.82;5.22;;;9.90;1.00;;;;;;4829314;29;20088;-81
2024/04/02 07:46:02;;;;;;;6.80;5.25;;;10.00;1.00;;;;;;4824904;29;20047;-81
2024/04/02 07:48:28;;;;;;;6.57;5.85;;;9.80;1.00;;;;;;4815746;29;20057;-81
2024/04/02 07:50:54;;;;;;;6.60;5.65;;;9.80;1.00;;;;;;4848016;29;20033;-81
2024/04/02 07:53:20;;;;;;;6.85;6.15;;;9.80;1.00;;;;;;4847841;29;20070;-81
2024/04/02 07:55:45;;;;;;;7.10;5.75;;;9.70;1.00;;;;;;4842970;29;20082;-80
2024/04/02 07:58:11;;;;;;;7.07;5.63;;;9.70;1.00;;;;;;4842867;29;20038;-81
2024/04/02 08:00:37;;;;;;;7.55;5.70;;;9.70;1.00;;;;;;4842776;29;20407;-82
2024/04/02 08:03:03;;;;;;;8.45;6.15;;;9.70;1.00;;;;;;4811191;29;20031;-82
2024/04/02 08:05:29;;;;;;;8.52;5.40;;;9.80;1.00;;;;;;4819623;29;20058;-80
2024/04/02 08:07:56;;;;;;;5.88;4.30;;;9.90;1.00;;;;;;4842656;29;20109;-81
2024/04/02 08:10:22;;;;;;;5.50;4.85;;;9.90;1.00;;;;;;4847404;29;20042;-81
2024/04/02 08:12:47;;;;;;;6.13;4.70;;;9.90;1.00;;;;;;4848834;29;20118;-81
2024/04/02 08:15:13;;;;;;;6.97;4.28;;;9.80;99.90;;;;;;4861037;29;20154;-81
2024/04/02 08:17:38;;;;;;;7.20;4.43;;;9.80;99.90;;;;;;4879624;29;20047;-81
2024/04/02 08:20:05;;;;;;;5.68;4.40;;;9.70;99.90;;;;;;4879518;29;20041;-82
2024/04/02 08:22:31;;;;;;;5.78;4.40;;;9.70;99.90;;;;;;4852345;29;20511;-81
2024/04/02 08:24:56;;;;;;;5.47;4.43;;;9.70;99.90;;;;;;4860854;29;20155;-82
2024/04/02 08:27:22;;;;;;;5.53;4.22;;;9.80;99.90;;;;;;4876581;29;20106;-86
2024/04/02 08:29:50;;;;;;;5.05;4.00;;;9.80;99.90;;;;;;4861843;29;20160;-86
2024/04/02 08:32:17;;;;;;;5.55;4.95;;;9.80;99.90;;;;;;4856893;29;20050;-82
2024/04/02 08:34:43;;;;;;;5.97;4.13;;;9.70;99.90;;;;;;4860984;29;20045;-82
2024/04/02 08:37:09;;;;;;;5.85;4.50;;;9.70;99.90;;;;;;4860790;29;20034;-82
2024/04/02 08:39:34;;;;;;;5.47;4.10;;;9.70;99.90;;;;;;4856348;29;20045;-82
2024/04/02 08:42:03;;;;;;;6.03;4.68;;;9.60;99.90;;;;;;4893226;29;20512;-82
2024/04/02 08:44:32;;;;;;;5.85;4.22;;;9.60;99.90;;;;;;4902116;29;20040;-82
2024/04/02 08:46:58;;;;;;;5.68;4.50;;;9.60;99.90;;;;;;4864360;29;20048;-82
2024/04/02 08:49:24;;;;;;;6.70;4.03;;;9.70;99.90;;;;;;4830867;29;20368;-82
2024/04/02 08:51:50;;;;;;;5.07;4.38;;;9.70;99.90;;;;;;4853398;29;20041;-82
2024/04/02 08:54:16;;;;;;;6.72;4.53;;;9.70;99.90;;;;;;4878968;29;20044;-82
2024/04/02 08:56:42;;;;;;;5.00;4.03;;;9.80;99.90;;;;;;4878899;29;20041;-82
2024/04/02 08:59:09;;;;;;;5.60;4.20;;;9.80;99.90;;;;;;4860393;29;20041;-82
2024/04/02 09:01:36;;;;;;;7.43;4.60;;;9.80;99.90;;;;;;4897423;29;20037;-82
2024/04/02 09:04:02;;;;;;;6.95;4.93;;;9.90;99.90;;;;;;4864017;29;20056;-82
2024/04/02 09:06:28;;;;;;;7.43;4.68;;;9.80;99.90;;;;;;4841963;29;20048;-81
2024/04/02 09:08:58;;;;;;;7.15;4.90;;;9.90;99.90;;;;;;4827129;29;20129;-82
2024/04/02 09:11:27;;;;;;;6.18;4.80;;;10.00;99.90;;;;;;4841862;29;20121;-84
2024/04/02 09:13:52;;;;;;;5.90;4.65;;;10.00;99.90;;;;;;4860496;29;20044;-85
2024/04/02 09:16:18;;;;;;;5.20;4.70;;;10.10;76.00;;;;;;4881915;29;20041;-83
2024/04/02 09:18:45;;;;;;;7.40;5.15;;;10.10;18.90;;;;;;4863687;29;20093;-84
2024/04/02 09:21:12;;;;;;;5.88;5.03;;;10.10;42.70;;;;;;4844808;29;20034;-83
2024/04/02 09:23:38;;;;;;;6.30;5.65;;;10.00;16.50;;;;;;4863374;29;20057;-83
2024/04/02 09:26:07;;;;;;;7.78;4.80;;;10.10;68.20;;;;;;4878412;29;20068;-83
2024/04/02 09:28:41;;;;;;;7.43;4.80;;;10.10;17.70;;;;;;4881797;29;20049;-83
2024/04/02 09:31:06;;;;;;;5.43;4.82;;;10.20;19.40;;;;;;4896858;29;20087;-83
2024/04/02 09:33:36;;;;;;;7.53;4.70;;;10.20;1.00;;;;;;4864436;29;20072;-83
2024/04/02 09:36:05;;;;;;;5.97;4.53;;;10.20;1.00;;;;;;4859637;29;20074;-84
2024/04/02 09:38:33;;;;;;;6.13;5.03;;;10.20;1.00;;;;;;4826157;29;20411;-83
2024/04/02 09:41:00;;;;;;;7.75;4.65;;;10.30;1.00;;;;;;4849371;29;20373;-84
2024/04/02 09:43:28;;;;;;;7.75;4.60;;;10.40;1.00;;;;;;4842857;29;20272;-84
2024/04/02 09:45:55;;;;;;;6.70;4.68;;;10.40;1.00;;;;;;4859580;29;20540;-83
2024/04/02 09:48:23;;;;;;;9.60;4.93;;;10.50;1.00;;;;;;4826109;29;20030;-85
2024/04/02 09:50:52;;;;;;;8.63;4.70;;;10.60;1.00;;;;;;4841294;29;20042;-84
2024/04/02 09:53:19;;;;;;;7.28;4.70;;;10.70;99.90;;;;;;4825244;29;20191;-84
2024/04/02 09:55:46;;;;;;;6.57;4.43;;;10.70;99.90;;;;;;4848416;29;20123;-85
2024/04/02 09:58:12;;;;;;;6.72;5.13;;;10.90;99.90;;;;;;4842282;29;20559;-84
2024/04/02 10:00:43;;;;;;;5.35;4.50;;;11.00;99.90;;;;;;4858548;29;20070;-85
2024/04/02 10:03:10;;;;;;;6.43;5.40;;;11.00;99.90;;;;;;4825944;29;20111;-84
2024/04/02 10:05:36;;;;;;;4.65;3.70;;;11.00;99.90;;;;;;4825735;29;20423;-84
2024/04/02 10:08:03;;;;;;;9.35;4.20;;;11.00;99.90;;;;;;4808020;29;20038;-84
2024/04/02 10:10:29;;;;;;;6.30;3.88;;;11.10;99.90;;;;;;4804998;29;20047;-83
2024/04/02 10:12:56;;;;;;;5.22;3.95;;;11.30;1.00;;;;;;4827414;29;20076;-84
2024/04/02 10:15:23;;;;;;;5.65;3.70;;;11.50;1.00;;;;;;4859086;29;20041;-83
2024/04/02 10:17:59;;;;;;;12.25;4.20;;;11.50;1.00;;;;;;4859048;29;20046;-84
2024/04/02 10:20:32;;;;;;;6.15;3.75;;;11.50;1.00;;;;;;4826466;29;20088;-83
2024/04/02 10:23:02;;;;;;;6.15;3.70;;;11.50;58.00;;;;;;4822394;29;20073;-83
2024/04/02 10:25:31;;;;;;;5.82;3.83;;;11.50;1.00;;;;;;4840759;29;20041;-83
2024/04/02 10:28:03;;;;;;;4.85;4.03;;;11.50;1.00;;;;;;4823159;29;20055;-83
2024/04/02 10:30:29;;;;;;;5.80;3.78;;;11.40;99.90;;;;;;4840536;29;20085;-83
2024/04/02 10:32:55;;;;;;;6.15;3.50;;;11.70;1.00;;;;;;4840656;29;20041;-83
2024/04/02 10:35:26;;;;;;;5.55;3.70;;;11.80;99.90;;;;;;4804725;29;20043;-83
2024/04/02 10:37:56;;;;;;;6.32;3.58;;;12.00;99.90;;;;;;4804383;29;20603;-84
2024/04/02 10:40:23;;;;;;;5.15;3.15;;;12.20;99.90;;;;;;4786240;30;20050;-83
2024/04/02 10:42:50;;;;;;;4.75;3.33;;;12.30;99.90;;;;;;4804436;29;20039;-83
2024/04/02 10:45:16;;;;;;;5.97;4.05;;;12.30;1.00;;;;;;4786461;29;20549;-83
2024/04/02 10:47:50;;;;;;;7.28;3.80;;;12.30;99.90;;;;;;4822246;29;20162;-83
2024/04/02 10:50:18;;;;;;;6.00;3.65;;;12.30;93.30;;;;;;4822338;29;20053;-82
2024/04/02 10:52:44;;;;;;;4.63;3.42;;;12.40;1.00;;;;;;4840414;29;20042;-84
2024/04/02 10:55:10;;;;;;;5.50;3.70;;;12.30;1.00;;;;;;4751881;29;20040;-84
2024/04/02 10:57:37;;;;;;;8.23;3.25;;;12.10;1.00;;;;;;4717094;30;20041;-83
2024/04/02 11:00:05;;;;;;;4.85;3.20;;;12.10;1.00;;;;;;4715522;30;20136;-83
2024/04/02 11:02:34;;;;;;;5.78;4.45;;;12.10;1.00;;;;;;4744739;30;20041;-86
2024/04/02 11:05:00;;;;;;;6.03;3.33;;;12.10;1.00;;;;;;4750843;30;20052;-85
2024/04/02 11:07:27;;;;;;;4.38;3.72;;;12.10;1.00;;;;;;4750372;30;20040;-83
2024/04/02 11:09:53;;;;;;;6.40;3.50;;;12.10;1.00;;;;;;4767769;30;20408;-82
2024/04/02 11:12:21;;;;;;;10.50;3.80;;;12.00;1.00;;;;;;4783713;29;20148;-84
2024/04/02 11:14:53;;;;;;;4.10;3.47;;;12.00;99.90;;;;;;4811057;29;20488;-83
2024/04/02 11:17:20;;;;;;;6.28;3.40;;;11.80;1.00;;;;;;4790991;29;20039;-83
2024/04/02 11:19:46;;;;;;;4.63;3.38;;;11.80;31.40;;;;;;4825420;29;20114;-86
2024/04/02 11:25:07;;;;;;;6.05;3.90;;;11.80;1.00;;;;;;4845088;29;20090;-84
2024/04/02 11:27:33;;;;;;;4.35;3.58;;;11.60;1.00;;;;;;4863322;29;20109;-84
2024/04/02 11:29:59;;;;;;;5.32;3.53;;;11.60;1.00;;;;;;4879006;29;20155;-84
2024/04/02 11:32:28;;;;;;;4.55;3.33;;;11.70;1.00;;;;;;4881077;29;20037;-84
2024/04/02 11:35:05;;;;;;;7.30;3.63;;;11.80;1.00;;;;;;4898415;29;20067;-83
2024/04/02 11:37:32;;;;;;;4.68;3.38;;;11.90;99.90;;;;;;4882347;29;20116;-84
2024/04/02 11:40:01;;;;;;;5.55;3.30;;;12.10;99.90;;;;;;4899394;29;20374;-83
2024/04/02 11:42:28;;;;;;;6.60;3.40;;;12.00;99.90;;;;;;4880543;29;20041;-83
2024/04/02 11:44:57;;;;;;;4.88;3.20;;;12.00;99.90;;;;;;4878036;29;20041;-84
2024/04/02 11:47:26;;;;;;;6.05;3.20;;;12.00;99.90;;;;;;4861792;29;20037;-83
2024/04/02 11:49:52;;;;;;;6.95;4.10;;;12.10;99.90;;;;;;4839085;29;20045;-83
2024/04/02 11:52:17;;;;;;;4.57;3.88;;;12.10;99.90;;;;;;4824899;29;20043;-83
2024/04/02 11:54:44;;;;;;;5.93;4.20;;;12.30;99.90;;;;;;4843135;29;20053;-83
2024/04/02 12:00:12;;;;;;;5.90;3.78;;;12.20;99.90;;;;;;4862282;29;20068;-84
2024/04/02 12:02:42;;;;;;;6.38;3.97;;;12.10;99.90;;;;;;4855911;29;20034;-83
2024/04/02 12:05:09;;;;;;;5.95;3.90;;;12.20;99.90;;;;;;4858349;29;20457;-84
2024/04/02 12:07:36;;;;;;;6.93;4.10;;;12.20;99.90;;;;;;4871403;29;20041;-84
2024/04/02 12:10:05;;;;;;;4.50;3.67;;;12.10;99.90;;;;;;4878473;29;20462;-83
2024/04/02 12:12:32;;;;;;;6.55;4.55;;;11.80;99.90;;;;;;4861441;29;20074;-83
2024/04/02 12:14:59;;;;;;;7.00;3.90;;;11.80;99.90;;;;;;4861300;29;20422;-83
2024/04/02 12:17:25;;;;;;;5.05;3.60;;;11.90;99.90;;;;;;4861114;29;20034;-83
2024/04/02 12:19:52;;;;;;;6.78;3.90;;;11.80;99.90;;;;;;4805138;29;20099;-83
2024/04/02 12:22:19;;;;;;;5.85;4.00;;;11.80;99.90;;;;;;4805048;29;20035;-83
2024/04/02 12:24:44;;;;;;;6.82;4.15;;;11.80;99.90;;;;;;4789091;29;20050;-84
2024/04/02 12:27:10;;;;;;;6.10;3.88;;;11.90;99.90;;;;;;4806115;29;20035;-84
2024/04/02 12:29:38;;;;;;;5.18;3.90;;;12.10;99.90;;;;;;4805898;29;20103;-84
2024/04/02 12:32:05;;;;;;;6.65;4.05;;;12.30;99.90;;;;;;4806461;29;20030;-84
2024/04/02 12:34:31;;;;;;;4.63;3.72;;;12.30;99.90;;;;;;4840572;29;20291;-70
2024/04/02 12:36:57;;;;;;;9.10;3.78;;;12.50;99.90;;;;;;4842160;29;20153;-70
2024/04/02 12:39:23;;;;;;;4.72;3.28;;;12.70;52.00;;;;;;4830530;29;20042;-73
2024/04/02 12:41:48;;;;;;;5.47;3.80;;;12.90;3.90;;;;;;4823811;29;20167;-71
2024/04/02 12:44:14;;;;;;;5.00;3.28;;;13.30;1.00;;;;;;4809506;29;20509;-71
2024/04/02 12:46:40;;;;;;;4.57;3.05;;;13.20;99.90;;;;;;4838235;29;20030;-71
2024/04/02 12:49:08;;;;;;;4.70;2.88;;;13.30;99.90;;;;;;4828087;29;20475;-70
2024/04/02 12:51:34;;;;;;;4.80;2.55;;;13.30;99.90;;;;;;4824284;29;20518;-74
2024/04/02 12:54:00;;;;;;;5.10;2.80;;;13.30;99.90;;;;;;4837986;29;20132;-78